Weather Data

Pearl Creek Farm: 8878 N Farm Road 75, Walnut Grove MO 65770

<== Previous Day (Thursday 03 Sep 2015) | Next Day (Saturday 05 Sep 2015) ==>

Summary Precipitation Data For Friday 04 September 2015

ElementValueUnits
Precipitation0"
Notes(none)
SourcePearl Creek Farm

Summary Temperature Data For Friday 04 September 2015

ElementValueUnits
High Temperature89 oF
Low Temperature69 oF
Average Temperature78 oF
High Humidity91 %
Low Humidity64 %
Average Humidity83 %
SourcePearl Creek Farm

Detail Temperature Data For Friday 04 September 2015

Date / TimeTemp (F)RH (%)Dew Pt (F)Report Date / TimeSource
2015-09-04 00:00:00 73 88 69.1 2015-09-07 20:25:01 Pearl Creek Farm
2015-09-04 00:30:00 72 89 68.4 2015-09-07 20:25:01 Pearl Creek Farm
2015-09-04 01:00:00 72 88 68.2 2015-09-07 20:25:01 Pearl Creek Farm
2015-09-04 01:30:00 71 89 67.6 2015-09-07 20:25:01 Pearl Creek Farm
2015-09-04 02:00:00 71 89 67.6 2015-09-07 20:25:01 Pearl Creek Farm
2015-09-04 02:30:00 70 89 66.6 2015-09-07 20:25:01 Pearl Creek Farm
2015-09-04 03:00:00 70 90 66.8 2015-09-07 20:25:01 Pearl Creek Farm
2015-09-04 03:30:00 70 90 66.8 2015-09-07 20:25:01 Pearl Creek Farm
2015-09-04 04:00:00 70 90 66.9 2015-09-07 20:25:01 Pearl Creek Farm
2015-09-04 04:30:00 69 90 65.9 2015-09-07 20:25:01 Pearl Creek Farm
2015-09-04 05:00:00 69 90 65.9 2015-09-07 20:25:01 Pearl Creek Farm
2015-09-04 05:30:00 69 90 65.9 2015-09-07 20:25:01 Pearl Creek Farm
2015-09-04 06:00:00 69 91 66.1 2015-09-07 20:25:01 Pearl Creek Farm
2015-09-04 06:30:00 69 91 66.3 2015-09-07 20:25:01 Pearl Creek Farm
2015-09-04 07:00:00 69 91 66.3 2015-09-07 20:25:01 Pearl Creek Farm
2015-09-04 07:30:00 70 91 67.3 2015-09-07 20:25:01 Pearl Creek Farm
2015-09-04 08:00:00 70 91 67.3 2015-09-07 20:25:01 Pearl Creek Farm
2015-09-04 08:30:00 71 91 68.2 2015-09-07 20:25:01 Pearl Creek Farm
2015-09-04 09:00:00 74 91 71.2 2015-09-07 20:25:01 Pearl Creek Farm
2015-09-04 09:30:00 77 87 72.7 2015-09-07 20:25:01 Pearl Creek Farm
2015-09-04 10:00:00 78 85 72.9 2015-09-07 20:25:01 Pearl Creek Farm
2015-09-04 10:30:00 79 84 73.6 2015-09-07 20:25:01 Pearl Creek Farm
2015-09-04 11:00:00 79 84 73.6 2015-09-07 20:25:01 Pearl Creek Farm
2015-09-04 11:30:00 81 82 75.0 2015-09-07 20:25:01 Pearl Creek Farm
2015-09-04 12:00:00 83 78 75.2 2015-09-07 20:25:01 Pearl Creek Farm
2015-09-04 12:30:00 85 73 75.2 2015-09-07 20:25:01 Pearl Creek Farm
2015-09-04 13:00:00 85 71 74.5 2015-09-07 20:25:01 Pearl Creek Farm
2015-09-04 13:30:00 87 68 75.1 2015-09-07 20:25:01 Pearl Creek Farm
2015-09-04 14:00:00 87 67 74.7 2015-09-07 20:25:01 Pearl Creek Farm
2015-09-04 14:30:00 88 67 75.7 2015-09-07 20:25:01 Pearl Creek Farm
2015-09-04 15:00:00 89 64 75.0 2015-09-07 20:25:01 Pearl Creek Farm
2015-09-04 15:30:00 89 64 75.0 2015-09-07 20:25:01 Pearl Creek Farm
2015-09-04 16:00:00 89 66 75.9 2015-09-07 20:25:01 Pearl Creek Farm
2015-09-04 16:30:00 88 70 77.0 2015-09-07 20:25:01 Pearl Creek Farm
2015-09-04 17:00:00 87 72 76.7 2015-09-07 20:25:01 Pearl Creek Farm
2015-09-04 17:30:00 85 74 75.8 2015-09-07 20:25:01 Pearl Creek Farm
2015-09-04 18:00:00 85 76 76.4 2015-09-07 20:25:01 Pearl Creek Farm
2015-09-04 18:30:00 84 77 75.8 2015-09-07 20:25:01 Pearl Creek Farm
2015-09-04 19:00:00 83 78 75.4 2015-09-07 20:25:01 Pearl Creek Farm
2015-09-04 19:30:00 82 82 75.8 2015-09-07 20:25:01 Pearl Creek Farm
2015-09-04 20:00:00 80 83 74.4 2015-09-07 20:25:01 Pearl Creek Farm
2015-09-04 20:30:00 79 85 73.9 2015-09-07 20:25:01 Pearl Creek Farm
2015-09-04 21:00:00 78 85 73.1 2015-09-07 20:25:01 Pearl Creek Farm
2015-09-04 21:30:00 77 86 72.3 2015-09-07 20:25:01 Pearl Creek Farm
2015-09-04 22:00:00 76 87 71.7 2015-09-07 20:25:01 Pearl Creek Farm
2015-09-04 22:30:00 75 87 70.9 2015-09-07 20:25:01 Pearl Creek Farm
2015-09-04 23:00:00 75 88 71.2 2015-09-07 20:25:01 Pearl Creek Farm
2015-09-04 23:30:00 74 88 70.2 2015-09-07 20:25:01 Pearl Creek Farm

A total of 48 rows are displayed.